createdAt,value
2023-01-28T00:01:32.500Z,102159.38
2023-01-28T00:03:58.827Z,102157.44
2023-01-28T00:06:25.488Z,102154.66
2023-01-28T00:08:51.945Z,102152.44
2023-01-28T00:11:18.399Z,102146.06
2023-01-28T00:13:44.702Z,102146.06
2023-01-28T00:16:11.690Z,102151.31
2023-01-28T00:18:38.087Z,102150.50
2023-01-28T00:21:12.290Z,102150.50
2023-01-28T00:23:39.473Z,102150.50
2023-01-28T00:26:07.129Z,102151.91
2023-01-28T00:28:33.966Z,102149.41
2023-01-28T00:31:06.371Z,102154.09
2023-01-28T00:33:33.046Z,102150.50
2023-01-28T00:36:00.761Z,102151.91
2023-01-28T00:38:27.578Z,102148.34
2023-01-28T00:40:53.887Z,102147.47
2023-01-28T00:43:20.339Z,102147.75
2023-01-28T00:45:49.926Z,102149.72
2023-01-28T00:48:16.641Z,102146.94
2023-01-28T00:50:43.180Z,102156.88
2023-01-28T00:53:09.445Z,102156.63
2023-01-28T00:55:35.895Z,102165.19
2023-01-28T00:58:02.345Z,102159.66
2023-01-28T01:00:28.627Z,102170.72
2023-01-28T01:02:55.100Z,102172.66
2023-01-28T01:05:21.517Z,102164.66
2023-01-28T01:07:47.929Z,102159.41
2023-01-28T01:10:15.970Z,102158.56
2023-01-28T01:12:42.706Z,102159.41
2023-01-28T01:15:10.417Z,102153.88
2023-01-28T01:17:37.886Z,102159.41
2023-01-28T01:20:04.944Z,102153.59
2023-01-28T01:22:35.823Z,102156.88
2023-01-28T01:25:03.853Z,102161.31
2023-01-28T01:27:30.672Z,102161.31
2023-01-28T01:29:57.004Z,102172.13
2023-01-28T01:32:23.282Z,102170.16
2023-01-28T01:34:49.591Z,102163.81
2023-01-28T01:37:16.064Z,102172.13
2023-01-28T01:39:42.328Z,102166.00
2023-01-28T01:42:12.955Z,102168.25
2023-01-28T01:44:58.167Z,102169.38
2023-01-28T01:47:27.079Z,102173.25
2023-01-28T01:49:54.291Z,102172.69
2023-01-28T01:52:23.839Z,102177.38
2023-01-28T01:54:52.674Z,102175.75
2023-01-28T01:57:22.739Z,102178.50
2023-01-28T01:59:49.008Z,102171.03
2023-01-28T02:02:15.649Z,102176.28
2023-01-28T02:04:44.426Z,102178.53
2023-01-28T02:07:14.988Z,102176.56
2023-01-28T02:09:41.609Z,102171.03
2023-01-28T02:12:18.123Z,102180.47
2023-01-28T02:14:47.127Z,102184.88
2023-01-28T02:17:13.784Z,102192.06
2023-01-28T02:19:45.928Z,102186.25
2023-01-28T02:22:20.154Z,102180.69
2023-01-28T02:24:54.432Z,102181.28
2023-01-28T02:27:24.959Z,102185.97
2023-01-28T02:30:24.695Z,102192.88
2023-01-28T02:32:57.695Z,102192.03
2023-01-28T02:35:23.982Z,102194.81
2023-01-28T02:38:11.133Z,102203.09
2023-01-28T02:41:00.949Z,102196.75
2023-01-28T02:43:46.159Z,102200.34
2023-01-28T02:46:37.268Z,102199.81
2023-01-28T02:49:05.778Z,102197.31
2023-01-28T02:51:43.728Z,102199.81
2023-01-28T02:54:10.006Z,102207.28
2023-01-28T02:56:45.697Z,102203.13
2023-01-28T02:59:30.997Z,102193.19
2023-01-28T03:02:16.327Z,102192.63
2023-01-28T03:04:48.006Z,102188.78
2023-01-28T03:07:15.228Z,102190.69
2023-01-28T03:09:43.915Z,102195.97
2023-01-28T03:12:35.132Z,102192.66
2023-01-28T03:15:33.146Z,102188.53
2023-01-28T03:18:29.761Z,102187.13
2023-01-28T03:21:23.534Z,102189.34
2023-01-28T03:24:11.526Z,102180.78
2023-01-28T03:26:59.107Z,102175.25
2023-01-28T03:29:45.087Z,102176.06
2023-01-28T03:32:30.973Z,102178.84
2023-01-28T03:35:16.712Z,102178.56
2023-01-28T03:37:43.439Z,102178.84
2023-01-28T03:40:10.337Z,102176.06
2023-01-28T03:42:36.965Z,102183.84
2023-01-28T03:45:04.941Z,102182.19
2023-01-28T03:47:31.868Z,102191.31
2023-01-28T03:49:59.933Z,102196.00
2023-01-28T03:52:27.562Z,102189.09
2023-01-28T03:54:53.876Z,102200.44
2023-01-28T03:57:21.408Z,102189.91
2023-01-28T03:59:49.796Z,102198.75
2023-01-28T04:02:16.932Z,102201.50
2023-01-28T04:04:43.278Z,102201.25
2023-01-28T04:07:14.412Z,102200.13
2023-01-28T04:09:41.388Z,102207.06
2023-01-28T04:12:07.772Z,102205.94
2023-01-28T04:14:34.079Z,102206.78
2023-01-28T04:17:00.374Z,102200.97
2023-01-28T04:19:27.275Z,102202.59
2023-01-28T04:21:56.839Z,102196.53
2023-01-28T04:24:23.528Z,102210.38
2023-01-28T04:26:50.230Z,102215.34
2023-01-28T04:29:16.499Z,102213.97
2023-01-28T04:31:42.744Z,102208.16
2023-01-28T04:34:10.124Z,102216.72
2023-01-28T04:36:36.435Z,102217.56
2023-01-28T04:39:02.798Z,102219.50
2023-01-28T04:41:29.012Z,102223.09
2023-01-28T04:43:55.977Z,102225.81
2023-01-28T04:46:22.324Z,102224.72
2023-01-28T04:48:48.729Z,102223.88
2023-01-28T04:51:14.949Z,102233.00
2023-01-28T04:53:41.166Z,102233.81
2023-01-28T04:56:07.580Z,102232.97
2023-01-28T04:58:33.855Z,102236.28
2023-01-28T05:01:00.555Z,102236.84
2023-01-28T05:03:27.492Z,102224.69
2023-01-28T05:05:54.261Z,102225.75
2023-01-28T05:08:20.628Z,102227.97
2023-01-28T05:10:46.957Z,102219.16
2023-01-28T05:13:13.458Z,102221.63
2023-01-28T05:15:39.797Z,102224.69
2023-01-28T05:18:06.229Z,102224.69
2023-01-28T05:20:32.543Z,102221.63
2023-01-28T05:22:58.801Z,102231.56
2023-01-28T05:25:25.085Z,102220.53
2023-01-28T05:27:52.217Z,102230.47
2023-01-28T05:30:19.553Z,102221.94
2023-01-28T05:32:46.047Z,102222.75
2023-01-28T05:35:12.425Z,102226.34
2023-01-28T05:37:38.650Z,102233.50
2023-01-28T05:40:05.276Z,102227.16
2023-01-28T05:42:31.818Z,102230.75
2023-01-28T05:44:58.107Z,102229.63
2023-01-28T05:47:24.382Z,102239.63
2023-01-28T05:49:50.704Z,102236.00
2023-01-28T05:52:16.986Z,102246.78
2023-01-28T05:54:43.339Z,102241.25
2023-01-28T05:57:09.839Z,102242.91
2023-01-28T05:59:36.180Z,102252.03
2023-01-28T06:02:02.650Z,102247.34
2023-01-28T06:04:29.096Z,102250.91
2023-01-28T06:06:55.374Z,102250.91
2023-01-28T06:09:21.649Z,102248.97
2023-01-28T06:11:48.137Z,102253.69
2023-01-28T06:14:15.453Z,102248.16
2023-01-28T06:16:41.748Z,102249.81
2023-01-28T06:19:08.159Z,102245.41
2023-01-28T06:21:34.450Z,102242.09
2023-01-28T06:24:00.987Z,102251.19
2023-01-28T06:26:27.302Z,102248.44
2023-01-28T06:28:53.571Z,102248.72
2023-01-28T06:31:19.923Z,102246.50
2023-01-28T06:33:46.232Z,102246.50
2023-01-28T06:36:12.461Z,102245.16
2023-01-28T06:38:38.713Z,102242.38
2023-01-28T06:41:05.427Z,102251.50
2023-01-28T06:43:31.841Z,102255.09
2023-01-28T06:45:58.822Z,102257.03
2023-01-28T06:48:25.876Z,102247.34
2023-01-28T06:50:52.947Z,102234.91
2023-01-28T06:53:19.705Z,102242.38
2023-01-28T06:55:46.207Z,102252.56
2023-01-28T06:58:12.851Z,102257.53
2023-01-28T07:00:40.742Z,102251.47
2023-01-28T07:03:07.343Z,102239.84
2023-01-28T07:05:33.684Z,102227.44
2023-01-28T07:08:03.255Z,102234.31
2023-01-28T07:10:30.022Z,102248.41
2023-01-28T07:12:56.289Z,102241.25
2023-01-28T07:15:22.853Z,102242.31
2023-01-28T07:17:49.210Z,102244.25
2023-01-28T07:20:16.105Z,102247.28
2023-01-28T07:22:43.462Z,102251.16
2023-01-28T07:25:10.941Z,102256.69
2023-01-28T07:27:37.371Z,102253.91
2023-01-28T07:30:04.663Z,102245.63
2023-01-28T07:32:31.047Z,102268.84
2023-01-28T07:34:57.482Z,102277.13
2023-01-28T07:37:25.122Z,102263.31
2023-01-28T07:39:52.209Z,102248.41
2023-01-28T07:42:18.488Z,102259.16
2023-01-28T07:44:45.057Z,102261.09
2023-01-28T07:47:13.228Z,102264.69
2023-01-28T07:49:42.648Z,102261.91
2023-01-28T07:52:09.364Z,102265.50
2023-01-28T07:54:35.698Z,102262.75
2023-01-28T07:57:01.985Z,102262.75
2023-01-28T07:59:28.318Z,102271.84
2023-01-28T08:01:55.163Z,102274.63
2023-01-28T08:04:21.650Z,102266.34
2023-01-28T08:06:49.794Z,102266.09
2023-01-28T08:09:16.283Z,102274.09
2023-01-28T08:11:42.686Z,102286.78
2023-01-28T08:14:10.353Z,102290.97
2023-01-28T08:16:36.691Z,102295.09
2023-01-28T08:19:03.114Z,102303.09
2023-01-28T08:21:29.430Z,102306.44
2023-01-28T08:23:56.714Z,102305.91
2023-01-28T08:26:23.036Z,102304.50
2023-01-28T08:28:51.318Z,102306.75
2023-01-28T08:31:19.090Z,102306.19
2023-01-28T08:33:45.427Z,102312.81
2023-01-28T08:36:11.705Z,102316.16
2023-01-28T08:38:37.992Z,102320.28
2023-01-28T08:41:04.606Z,102325.28
2023-01-28T08:43:30.896Z,102336.88
2023-01-28T08:45:57.166Z,102346.56
2023-01-28T08:48:23.751Z,102339.13
2023-01-28T08:50:50.864Z,102338.84
2023-01-28T08:53:18.787Z,102348.78
2023-01-28T08:55:45.684Z,102355.13
2023-01-28T08:58:16.498Z,102357.34
2023-01-28T09:00:43.307Z,102363.47
2023-01-28T09:03:09.847Z,102370.66
2023-01-28T09:05:37.305Z,102375.38
2023-01-28T09:08:04.897Z,102371.22
2023-01-28T09:10:31.175Z,102370.09
2023-01-28T09:12:57.943Z,102379.53
2023-01-28T09:15:24.532Z,102379.25
2023-01-28T09:17:56.894Z,102383.69
2023-01-28T09:20:25.503Z,102377.88
2023-01-28T09:22:58.172Z,102376.50
2023-01-28T09:25:24.679Z,102372.63
2023-01-28T09:27:51.145Z,102376.22
2023-01-28T09:30:17.895Z,102394.19
2023-01-28T09:32:44.575Z,102401.41
2023-01-28T09:35:10.962Z,102400.28
2023-01-28T09:37:37.375Z,102392.25
2023-01-28T09:40:04.795Z,102398.06
2023-01-28T09:42:49.968Z,102396.94
2023-01-28T09:45:22.016Z,102399.16
2023-01-28T09:47:52.605Z,102398.59
2023-01-28T09:50:18.980Z,102398.88
2023-01-28T09:52:45.621Z,102408.81
2023-01-28T09:55:31.898Z,102419.63
2023-01-28T09:57:58.208Z,102419.34
2023-01-28T10:00:28.961Z,102421.81
2023-01-28T10:03:08.461Z,102415.22
2023-01-28T10:05:53.035Z,102420.47
2023-01-28T10:08:19.556Z,102424.88
2023-01-28T10:10:45.945Z,102409.13
2023-01-28T10:13:22.615Z,102413.00
2023-01-28T10:15:53.778Z,102405.81
2023-01-28T10:18:26.324Z,102399.19
2023-01-28T10:20:56.457Z,102403.31
2023-01-28T10:23:26.699Z,102394.47
2023-01-28T10:25:54.974Z,102394.22
2023-01-28T10:28:24.050Z,102385.66
2023-01-28T10:30:50.903Z,102380.13
2023-01-28T10:33:36.561Z,102379.31
2023-01-28T10:36:03.333Z,102369.38
2023-01-28T10:38:31.080Z,102387.91
2023-01-28T10:41:00.563Z,102384.03
2023-01-28T10:43:30.275Z,102381.25
2023-01-28T10:46:08.838Z,102384.84
2023-01-28T10:48:39.648Z,102381.00
2023-01-28T10:51:07.300Z,102382.38
2023-01-28T10:53:37.489Z,102377.13
2023-01-28T10:56:12.361Z,102382.06
2023-01-28T10:58:50.543Z,102393.72
2023-01-28T11:01:17.205Z,102395.38
2023-01-28T11:03:53.675Z,102401.75
2023-01-28T11:06:27.983Z,102400.09
2023-01-28T11:08:54.527Z,102410.88
2023-01-28T11:11:27.511Z,102409.22
2023-01-28T11:13:55.466Z,102412.50
2023-01-28T11:16:22.000Z,102416.38
2023-01-28T11:18:50.805Z,102412.22
2023-01-28T11:21:19.805Z,102416.09
2023-01-28T11:24:03.104Z,102404.22
2023-01-28T11:26:32.131Z,102415.28
2023-01-28T11:28:58.570Z,102414.16
2023-01-28T11:31:26.185Z,102423.28
2023-01-28T11:33:57.117Z,102416.66
2023-01-28T11:36:27.283Z,102403.69
2023-01-28T11:38:55.635Z,102400.91
2023-01-28T11:41:27.310Z,102399.50
2023-01-28T11:43:54.046Z,102400.34
2023-01-28T11:46:20.598Z,102404.50
2023-01-28T11:49:05.961Z,102397.03
2023-01-28T11:51:36.454Z,102387.31
2023-01-28T11:54:05.620Z,102382.63
2023-01-28T11:56:52.387Z,102385.66
2023-01-28T11:59:27.960Z,102403.63
2023-01-28T12:02:23.729Z,102391.47
2023-01-28T12:05:02.032Z,102397.25
2023-01-28T12:07:40.142Z,102377.09
2023-01-28T12:10:18.918Z,102379.00
2023-01-28T12:13:00.767Z,102390.06
2023-01-28T12:15:30.099Z,102367.13
2023-01-28T12:17:56.375Z,102363.53
2023-01-28T12:20:42.255Z,102356.06
2023-01-28T12:23:14.758Z,102355.25
2023-01-28T12:25:59.891Z,102348.31
2023-01-28T12:28:45.024Z,102333.13
2023-01-28T12:31:11.988Z,102314.59
2023-01-28T12:33:51.956Z,102335.88
2023-01-28T12:36:30.351Z,102342.78
2023-01-28T12:38:56.654Z,102333.66
2023-01-28T12:41:25.815Z,102322.06
2023-01-28T12:43:52.198Z,102307.94
2023-01-28T12:46:26.914Z,102284.19
2023-01-28T12:49:00.836Z,102265.34
2023-01-28T12:51:34.227Z,102256.78
2023-01-28T12:54:03.971Z,102257.63
2023-01-28T12:56:35.619Z,102251.56
2023-01-28T12:59:05.714Z,102229.69
2023-01-28T13:01:41.291Z,102235.22
2023-01-28T13:04:23.840Z,102236.88
2023-01-28T13:06:50.248Z,102245.47
2023-01-28T13:09:18.686Z,102260.69
2023-01-28T13:11:45.546Z,102267.59
2023-01-28T13:14:13.061Z,102261.22
2023-01-28T13:16:39.420Z,102259.56
2023-01-28T13:19:07.634Z,102270.63
2023-01-28T13:21:47.292Z,102267.88
2023-01-28T13:24:15.506Z,102270.63
2023-01-28T13:26:44.988Z,102259.56
2023-01-28T13:29:27.980Z,102254.06
2023-01-28T13:31:56.225Z,102260.41
2023-01-28T13:34:33.677Z,102271.47
2023-01-28T13:37:03.507Z,102269.81
2023-01-28T13:39:33.729Z,102267.59
2023-01-28T13:42:21.772Z,102284.47
2023-01-28T13:44:48.055Z,102300.50
2023-01-28T13:47:22.915Z,102302.72
2023-01-28T13:50:15.349Z,102293.03
2023-01-28T13:52:59.655Z,102303.53
2023-01-28T13:55:44.371Z,102288.31
2023-01-28T13:58:30.132Z,102307.41
2023-01-28T14:01:10.108Z,102324.53
2023-01-28T14:03:42.485Z,102325.38
2023-01-28T14:06:20.749Z,102313.78
2023-01-28T14:08:52.331Z,102319.00
2023-01-28T14:11:24.852Z,102324.25
2023-01-28T14:14:00.288Z,102317.06
2023-01-28T14:16:33.949Z,102310.44
2023-01-28T14:19:01.728Z,102308.78
2023-01-28T14:21:28.450Z,102294.13
2023-01-28T14:23:56.491Z,102286.13
2023-01-28T14:26:54.983Z,102272.84
2023-01-28T14:29:38.257Z,102272.31
2023-01-28T14:32:05.999Z,102250.72
2023-01-28T14:34:34.402Z,102249.06
2023-01-28T14:37:04.650Z,102232.50
2023-01-28T14:39:32.168Z,102231.66
2023-01-28T14:41:59.995Z,102236.63
2023-01-28T14:44:26.432Z,102230.56
2023-01-28T14:47:03.299Z,102229.72
2023-01-28T14:49:39.377Z,102230.84
2023-01-28T14:52:08.657Z,102238.31
2023-01-28T14:54:52.300Z,102255.72
2023-01-28T14:57:33.697Z,102252.13
2023-01-28T15:00:02.164Z,102262.06
2023-01-28T15:02:30.096Z,102262.06
2023-01-28T15:05:10.229Z,102278.91
2023-01-28T15:07:36.521Z,102277.00
2023-01-28T15:10:04.916Z,102278.38
2023-01-28T15:12:34.686Z,102281.41
2023-01-28T15:15:10.132Z,102278.09
2023-01-28T15:17:36.637Z,102273.94
2023-01-28T15:20:03.899Z,102291.66
2023-01-28T15:22:31.975Z,102290.53
2023-01-28T15:24:58.234Z,102288.88
2023-01-28T15:27:29.751Z,102288.88
2023-01-28T15:29:57.929Z,102290.78
2023-01-28T15:32:26.491Z,102291.91
2023-01-28T15:34:53.110Z,102306.00
2023-01-28T15:37:20.085Z,102303.25
2023-01-28T15:39:46.860Z,102309.88
2023-01-28T15:42:20.747Z,102313.97
2023-01-28T15:44:48.357Z,102308.72
2023-01-28T15:47:21.969Z,102319.19
2023-01-28T15:49:50.564Z,102317.84
2023-01-28T15:52:17.235Z,102311.19
2023-01-28T15:54:45.424Z,102307.88
2023-01-28T15:57:21.672Z,102305.13
2023-01-28T15:59:51.083Z,102305.38
2023-01-28T16:02:22.165Z,102306.50
2023-01-28T16:04:58.162Z,102306.19
2023-01-28T16:07:29.653Z,102323.59
2023-01-28T16:09:57.674Z,102336.31
2023-01-28T16:23:01.224Z,102354.44
2023-01-28T16:25:29.411Z,102366.56
2023-01-28T16:27:59.975Z,102374.81
2023-01-28T16:30:26.539Z,102372.03
2023-01-28T16:32:53.457Z,102379.44
2023-01-28T16:35:31.361Z,102385.78
2023-01-28T16:38:04.386Z,102378.81
2023-01-28T16:40:32.385Z,102377.94
2023-01-28T16:42:59.179Z,102383.44
2023-01-28T16:45:26.250Z,102386.16
2023-01-28T16:47:52.913Z,102377.03
2023-01-28T16:50:21.707Z,102371.19
2023-01-28T16:52:49.483Z,102363.72
2023-01-28T16:55:17.759Z,102360.69
2023-01-28T16:57:44.996Z,102349.34
2023-01-28T17:00:23.069Z,102357.31
2023-01-28T17:02:50.418Z,102358.09
2023-01-28T17:05:18.579Z,102345.09
2023-01-28T17:07:46.953Z,102344.81
2023-01-28T17:10:13.287Z,102325.44
2023-01-28T17:12:39.512Z,102319.91
2023-01-28T17:15:06.200Z,102333.63
2023-01-28T17:17:32.957Z,102335.00
2023-01-28T17:19:59.420Z,102331.38
2023-01-28T17:22:25.720Z,102339.34
2023-01-28T17:24:52.394Z,102340.69
2023-01-28T17:27:18.998Z,102340.41
2023-01-28T17:29:45.451Z,102339.25
2023-01-28T17:32:12.157Z,102335.34
2023-01-28T17:34:38.760Z,102359.59
2023-01-28T17:37:05.265Z,102353.75
2023-01-28T17:39:31.512Z,102371.06
2023-01-28T17:41:57.885Z,102396.38
2023-01-28T17:44:24.380Z,102395.22
2023-01-28T17:46:50.823Z,102398.75
2023-01-28T17:49:17.126Z,102405.03
2023-01-28T17:51:43.555Z,102403.91
2023-01-28T17:54:11.817Z,102389.22
2023-01-28T17:56:38.984Z,102396.94
2023-01-28T17:59:06.727Z,102389.16
2023-01-28T18:01:34.252Z,102386.13
2023-01-28T18:04:02.450Z,102379.19
2023-01-28T18:06:32.858Z,102386.06
2023-01-28T18:08:59.306Z,102393.72
2023-01-28T18:11:25.612Z,102386.56
2023-01-28T18:13:52.345Z,102389.59
2023-01-28T18:16:21.803Z,102379.63
2023-01-28T18:18:49.615Z,102383.47
2023-01-28T18:21:42.810Z,102382.91
2023-01-28T18:24:13.007Z,102376.59
2023-01-28T18:26:39.246Z,102385.34
2023-01-28T18:29:05.508Z,102389.19
2023-01-28T18:31:31.841Z,102396.84
2023-01-28T18:33:59.951Z,102398.78
2023-01-28T18:36:26.823Z,102390.78
2023-01-28T18:38:53.180Z,102402.88
2023-01-28T18:41:19.498Z,102404.19
2023-01-28T18:43:45.838Z,102401.69
2023-01-28T18:46:13.716Z,102408.53
2023-01-28T18:48:41.567Z,102410.16
2023-01-28T18:51:17.518Z,102409.56
2023-01-28T18:53:47.657Z,102410.09
2023-01-28T18:56:15.364Z,102410.31
2023-01-28T18:58:41.596Z,102413.06
2023-01-28T19:01:08.746Z,102414.16
2023-01-28T19:03:35.285Z,102418.84
2023-01-28T19:06:09.084Z,102414.16
2023-01-28T19:08:35.777Z,102404.25
2023-01-28T19:11:02.066Z,102408.09
2023-01-28T19:13:29.711Z,102419.31
2023-01-28T19:15:56.406Z,102414.91
2023-01-28T19:18:22.760Z,102417.66
2023-01-28T19:20:49.072Z,102417.94
2023-01-28T19:23:15.410Z,102417.94
2023-01-28T19:25:41.910Z,102423.44
2023-01-28T19:28:08.215Z,102420.91
2023-01-28T19:30:35.757Z,102424.53
2023-01-28T19:33:02.521Z,102420.09
2023-01-28T19:35:28.744Z,102420.34
2023-01-28T19:37:55.124Z,102418.94
2023-01-28T19:40:21.731Z,102431.84
2023-01-28T19:42:51.649Z,102434.84
2023-01-28T19:45:18.104Z,102424.13
2023-01-28T19:47:44.644Z,102424.34
2023-01-28T19:50:11.581Z,102427.38
2023-01-28T19:52:38.214Z,102435.03
2023-01-28T19:55:04.653Z,102429.78
2023-01-28T19:57:30.918Z,102433.38
2023-01-28T19:59:57.205Z,102429.22
2023-01-28T20:02:23.850Z,102431.38
2023-01-28T20:05:00.070Z,102436.88
2023-01-28T20:07:27.755Z,102438.78
2023-01-28T20:09:54.039Z,102427.22
2023-01-28T20:12:20.457Z,102427.22
2023-01-28T20:14:47.103Z,102424.72
2023-01-28T20:17:13.402Z,102430.44
2023-01-28T20:19:39.835Z,102426.03
2023-01-28T20:22:06.139Z,102427.41
2023-01-28T20:24:32.620Z,102422.13
2023-01-28T20:26:58.898Z,102414.97
2023-01-28T20:29:25.103Z,102412.47
2023-01-28T20:32:13.452Z,102417.97
2023-01-28T20:34:38.090Z,102417.13
2023-01-28T20:37:06.496Z,102409.97
2023-01-28T20:39:32.784Z,102404.22
2023-01-28T20:41:59.019Z,102401.22
2023-01-28T20:44:26.794Z,102394.06
2023-01-28T20:46:53.024Z,102392.13
2023-01-28T20:49:19.374Z,102384.97
2023-01-28T20:51:45.611Z,102378.38
2023-01-28T20:54:13.526Z,102372.88
2023-01-28T20:56:39.903Z,102375.06
2023-01-28T20:59:06.431Z,102375.06
2023-01-28T21:01:34.419Z,102370.88
2023-01-28T21:04:01.115Z,102378.31
2023-01-28T21:06:28.169Z,102377.47
2023-01-28T21:08:54.552Z,102373.06
2023-01-28T21:11:21.617Z,102373.63
2023-01-28T21:13:48.239Z,102369.22
2023-01-28T21:16:14.820Z,102373.63
2023-01-28T21:18:41.129Z,102373.63
2023-01-28T21:21:11.649Z,102371.16
2023-01-28T21:23:37.945Z,102372.22
2023-01-28T21:26:04.985Z,102373.28
2023-01-28T21:28:32.599Z,102376.56
2023-01-28T21:31:18.506Z,102378.50
2023-01-28T21:33:48.449Z,102376.78
2023-01-28T21:36:15.623Z,102380.63
2023-01-28T21:38:43.480Z,102382.56
2023-01-28T21:41:09.795Z,102388.88
2023-01-28T21:43:36.366Z,102382.28
2023-01-28T21:46:02.928Z,102382.28
2023-01-28T21:48:29.340Z,102382.06
2023-01-28T21:51:14.036Z,102382.91
2023-01-28T21:53:41.507Z,102391.16
2023-01-28T21:56:08.432Z,102382.91
2023-01-28T21:58:54.226Z,102387.56
2023-01-28T22:01:20.748Z,102378.50
2023-01-28T22:03:47.064Z,102388.66
2023-01-28T22:06:13.539Z,102389.50
2023-01-28T22:08:40.110Z,102390.53
2023-01-28T22:11:07.487Z,102387.78
2023-01-28T22:13:34.106Z,102387.78
2023-01-28T22:16:00.371Z,102393.28
2023-01-28T22:18:26.727Z,102397.13
2023-01-28T22:21:00.266Z,102398.22
2023-01-28T22:23:26.853Z,102400.41
2023-01-28T22:25:53.160Z,102392.66
2023-01-28T22:28:19.635Z,102385.97
2023-01-28T22:30:46.860Z,102398.88
2023-01-28T22:33:13.198Z,102398.56
2023-01-28T22:35:39.447Z,102397.97
2023-01-28T22:38:05.679Z,102397.38
2023-01-28T22:40:32.684Z,102393.22
2023-01-28T22:42:59.125Z,102392.63
2023-01-28T22:45:25.433Z,102388.22
2023-01-28T22:47:51.885Z,102386.81
2023-01-28T22:50:18.564Z,102380.72
2023-01-28T22:52:47.119Z,102388.41
2023-01-28T22:55:13.424Z,102395.81
2023-01-28T22:57:39.723Z,102381.72
2023-01-28T23:00:08.630Z,102380.28
2023-01-28T23:02:34.868Z,102381.16
2023-01-28T23:05:01.173Z,102375.66
2023-01-28T23:07:27.578Z,102373.97
2023-01-28T23:09:53.848Z,102365.72
2023-01-28T23:12:20.291Z,102362.13
2023-01-28T23:15:05.146Z,102360.81
2023-01-28T23:17:50.077Z,102356.66
2023-01-28T23:20:35.604Z,102366.81
2023-01-28T23:23:20.583Z,102368.72
2023-01-28T23:25:49.074Z,102372.56
2023-01-28T23:28:15.896Z,102375.56
2023-01-28T23:30:43.041Z,102375.78
2023-01-28T23:33:10.069Z,102375.78
2023-01-28T23:35:36.362Z,102373.03
2023-01-28T23:38:02.694Z,102371.13
2023-01-28T23:40:29.022Z,102368.38
2023-01-28T23:42:55.994Z,102365.63
2023-01-28T23:45:22.285Z,102366.47
2023-01-28T23:47:48.860Z,102365.63
2023-01-28T23:50:15.668Z,102358.47
2023-01-28T23:52:42.185Z,102350.22
2023-01-28T23:55:08.503Z,102346.66
2023-01-28T23:57:35.942Z,102351.31
